createdAt,value
2019-04-16T00:02:48.536Z,2.77
2019-04-16T00:05:27.518Z,2.73
2019-04-16T00:08:27.345Z,2.70
2019-04-16T00:10:59.231Z,2.66
2019-04-16T00:13:34.792Z,2.65
2019-04-16T00:16:04.015Z,2.60
2019-04-16T00:18:33.196Z,2.57
2019-04-16T00:21:20.089Z,2.54
2019-04-16T00:24:08.232Z,2.52
2019-04-16T00:26:37.780Z,2.51
2019-04-16T00:29:07.322Z,2.47
2019-04-16T00:31:37.219Z,2.42
2019-04-16T00:34:07.120Z,2.38
2019-04-16T00:36:36.460Z,2.35
2019-04-16T00:39:06.891Z,2.31
2019-04-16T00:41:36.295Z,2.33
2019-04-16T00:44:05.745Z,2.34
2019-04-16T00:46:35.220Z,2.32
2019-04-16T00:49:04.911Z,2.34
2019-04-16T00:51:34.106Z,2.35
2019-04-16T00:54:03.292Z,2.34
2019-04-16T00:56:32.627Z,2.33
2019-04-16T00:59:01.803Z,2.32
2019-04-16T01:01:30.969Z,2.32
2019-04-16T01:04:00.494Z,2.31
2019-04-16T01:06:29.696Z,2.27
2019-04-16T01:08:59.068Z,2.25
2019-04-16T01:11:28.561Z,1.56
2019-04-16T01:13:57.746Z,2.22
2019-04-16T01:16:26.935Z,2.21
2019-04-16T01:18:56.462Z,2.14
2019-04-16T01:21:25.671Z,2.08
2019-04-16T01:23:54.862Z,2.04
2019-04-16T01:26:26.805Z,2.06
2019-04-16T01:29:08.823Z,2.03
2019-04-16T01:31:56.344Z,1.99
2019-04-16T01:34:47.031Z,1.96
2019-04-16T01:37:39.076Z,1.93
2019-04-16T01:40:09.450Z,1.88
2019-04-16T01:42:38.958Z,1.84
2019-04-16T01:45:08.838Z,1.81
2019-04-16T01:47:38.662Z,1.80
2019-04-16T01:50:12.763Z,1.76
2019-04-16T01:52:39.482Z,1.72
2019-04-16T01:55:08.932Z,1.71
2019-04-16T01:57:38.139Z,1.71
2019-04-16T02:00:08.881Z,1.71
2019-04-16T02:02:38.143Z,1.71
2019-04-16T02:05:07.732Z,1.75
2019-04-16T02:07:37.064Z,1.77
2019-04-16T02:10:07.654Z,1.76
2019-04-16T02:12:37.142Z,1.76
2019-04-16T02:15:06.953Z,1.75
2019-04-16T02:17:36.162Z,1.71
2019-04-16T02:20:07.396Z,1.71
2019-04-16T02:22:37.009Z,1.70
2019-04-16T02:25:06.450Z,1.69
2019-04-16T02:27:35.664Z,1.67
2019-04-16T02:30:06.181Z,1.62
2019-04-16T02:32:35.455Z,1.59
2019-04-16T02:35:04.800Z,1.58
2019-04-16T02:37:36.311Z,1.56
2019-04-16T02:40:05.771Z,1.54
2019-04-16T02:42:37.515Z,1.52
2019-04-16T02:45:07.460Z,1.50
2019-04-16T02:47:41.990Z,1.43
2019-04-16T02:50:11.403Z,1.41
2019-04-16T02:52:54.992Z,1.39
2019-04-16T02:55:42.640Z,1.33
2019-04-16T02:58:22.159Z,1.30
2019-04-16T03:01:08.486Z,1.35
2019-04-16T03:03:41.859Z,1.42
2019-04-16T03:06:11.241Z,1.45
2019-04-16T03:08:40.545Z,1.44
2019-04-16T03:11:09.751Z,1.46
2019-04-16T03:13:39.402Z,1.46
2019-04-16T03:16:38.089Z,1.45
2019-04-16T03:19:19.059Z,1.46
2019-04-16T03:21:45.228Z,1.49
2019-04-16T03:24:14.437Z,1.50
2019-04-16T03:26:44.326Z,1.49
2019-04-16T03:29:13.723Z,1.47
2019-04-16T03:31:42.939Z,1.48
2019-04-16T03:34:12.308Z,1.46
2019-04-16T03:36:41.551Z,1.43
2019-04-16T03:39:13.577Z,1.44
2019-04-16T03:41:41.855Z,1.47
2019-04-16T03:44:11.337Z,1.47
2019-04-16T03:46:46.096Z,1.47
2019-04-16T03:49:11.593Z,1.51
2019-04-16T03:51:41.017Z,1.56
2019-04-16T03:54:10.212Z,1.67
2019-04-16T03:56:39.586Z,1.75
2019-04-16T03:59:11.841Z,1.79
2019-04-16T04:01:39.722Z,1.83
2019-04-16T04:04:09.167Z,1.86
2019-04-16T04:06:39.560Z,1.92
2019-04-16T04:09:09.543Z,1.98
2019-04-16T04:11:41.224Z,2.03
2019-04-16T04:14:09.919Z,2.06
2019-04-16T04:16:39.211Z,2.11
2019-04-16T04:19:08.424Z,2.18
2019-04-16T04:21:37.844Z,2.24
2019-04-16T04:24:07.028Z,2.33
2019-04-16T04:26:41.085Z,2.40
2019-04-16T04:29:07.934Z,2.46
2019-04-16T04:31:37.128Z,2.43
2019-04-16T04:34:09.482Z,2.46
2019-04-16T04:36:37.526Z,2.53
2019-04-16T04:39:10.029Z,2.54
2019-04-16T04:41:38.458Z,2.57
2019-04-16T04:44:07.989Z,2.63
2019-04-16T04:46:37.698Z,2.69
2019-04-16T04:49:07.241Z,2.71
2019-04-16T04:51:42.517Z,2.72
2019-04-16T04:54:07.420Z,2.76
2019-04-16T04:56:37.904Z,2.74
2019-04-16T04:59:07.142Z,2.70
2019-04-16T05:01:36.475Z,2.69
2019-04-16T05:04:24.792Z,2.62
2019-04-16T05:06:57.222Z,2.58
2019-04-16T05:09:29.374Z,2.64
2019-04-16T05:11:58.318Z,2.72
2019-04-16T05:14:27.510Z,2.78
2019-04-16T05:16:56.826Z,2.81
2019-04-16T05:19:26.059Z,2.84
2019-04-16T05:21:55.302Z,2.89
2019-04-16T05:24:28.888Z,2.94
2019-04-16T05:26:56.386Z,3.00
2019-04-16T05:29:26.007Z,3.08
2019-04-16T05:31:57.475Z,3.15
2019-04-16T05:34:26.280Z,3.19
2019-04-16T05:36:55.717Z,3.25
2019-04-16T05:39:29.463Z,3.33
2019-04-16T05:41:58.940Z,3.37
2019-04-16T05:44:32.795Z,3.42
2019-04-16T05:46:59.423Z,3.48
2019-04-16T05:49:29.695Z,3.50
2019-04-16T05:52:02.898Z,3.52
2019-04-16T05:54:49.307Z,3.57
2019-04-16T05:57:26.212Z,3.62
2019-04-16T05:59:55.262Z,3.70
2019-04-16T06:02:30.685Z,3.79
2019-04-16T06:05:00.541Z,3.87
2019-04-16T06:07:29.754Z,3.98
2019-04-16T06:10:01.887Z,4.04
2019-04-16T06:13:05.480Z,4.10
2019-04-16T06:15:43.837Z,4.19
2019-04-16T06:18:18.335Z,4.30
2019-04-16T06:20:53.796Z,4.42
2019-04-16T06:23:48.378Z,4.50
2019-04-16T06:26:27.496Z,4.59
2019-04-16T06:29:04.205Z,4.71
2019-04-16T06:31:44.918Z,4.81
2019-04-16T06:34:35.878Z,4.89
2019-04-16T06:37:27.156Z,4.98
2019-04-16T06:40:32.562Z,5.08
2019-04-16T06:43:16.534Z,5.16
2019-04-16T06:45:58.366Z,5.28
2019-04-16T06:48:32.247Z,5.41
2019-04-16T06:51:20.660Z,5.55
2019-04-16T06:54:07.805Z,5.73
2019-04-16T06:56:50.456Z,5.93
2019-04-16T06:59:30.420Z,6.15
2019-04-16T07:02:32.406Z,6.56
2019-04-16T07:05:15.818Z,7.07
2019-04-16T07:08:18.527Z,7.68
2019-04-16T07:10:54.805Z,8.39
2019-04-16T07:13:24.049Z,9.20
2019-04-16T07:15:56.984Z,9.73
2019-04-16T07:18:24.724Z,10.26
2019-04-16T07:20:53.955Z,10.73
2019-04-16T07:23:24.813Z,11.09
2019-04-16T07:25:54.377Z,11.43
2019-04-16T07:28:46.746Z,11.68
2019-04-16T07:31:34.048Z,12.13
2019-04-16T07:34:20.356Z,12.46
2019-04-16T07:37:00.690Z,12.76
2019-04-16T07:39:54.612Z,12.92
2019-04-16T07:42:29.219Z,13.11
2019-04-16T07:45:14.466Z,13.47
2019-04-16T07:48:06.229Z,13.88
2019-04-16T07:50:52.931Z,14.11
2019-04-16T07:53:40.456Z,14.13
2019-04-16T07:56:17.395Z,14.42
2019-04-16T07:58:47.835Z,14.74
2019-04-16T08:01:17.050Z,15.09
2019-04-16T08:03:46.272Z,15.38
2019-04-16T08:06:15.701Z,15.64
2019-04-16T08:08:44.897Z,15.82
2019-04-16T08:11:14.573Z,16.01
2019-04-16T08:13:44.518Z,16.09
2019-04-16T08:16:13.727Z,16.24
2019-04-16T08:18:50.678Z,16.47
2019-04-16T08:21:22.600Z,16.64
2019-04-16T08:24:06.240Z,16.64
2019-04-16T08:26:35.648Z,16.73
2019-04-16T08:29:05.421Z,16.93
2019-04-16T08:31:40.780Z,17.12
2019-04-16T08:34:08.662Z,17.22
2019-04-16T08:36:38.034Z,17.32
2019-04-16T08:39:11.113Z,17.56
2019-04-16T08:41:40.675Z,17.62
2019-04-16T08:44:10.720Z,17.59
2019-04-16T08:46:41.144Z,17.82
2019-04-16T08:49:10.631Z,18.06
2019-04-16T08:51:39.959Z,18.23
2019-04-16T08:54:09.608Z,18.34
2019-04-16T08:56:38.936Z,18.61
2019-04-16T08:59:10.061Z,18.70
2019-04-16T09:01:39.372Z,18.81
2019-04-16T09:04:08.889Z,18.65
2019-04-16T09:06:38.220Z,18.64
2019-04-16T09:09:30.515Z,18.98
2019-04-16T09:12:07.736Z,19.09
2019-04-16T09:14:38.231Z,19.16
2019-04-16T09:17:12.662Z,18.94
2019-04-16T09:19:45.636Z,19.05
2019-04-16T09:22:16.825Z,18.99
2019-04-16T09:24:55.619Z,18.98
2019-04-16T09:27:45.133Z,19.34
2019-04-16T09:30:32.399Z,19.65
2019-04-16T09:33:17.578Z,19.42
2019-04-16T09:36:05.815Z,20.16
2019-04-16T09:38:49.668Z,19.91
2019-04-16T09:41:31.651Z,19.07
2019-04-16T09:44:01.752Z,18.52
2019-04-16T09:46:50.509Z,18.74
2019-04-16T09:49:04.799Z,19.28
2019-04-16T09:51:33.644Z,19.60
2019-04-16T09:54:03.175Z,19.72
2019-04-16T09:56:32.932Z,20.04
2019-04-16T09:59:15.751Z,20.28
2019-04-16T10:01:52.094Z,19.96
2019-04-16T10:04:21.989Z,20.04
2019-04-16T10:06:52.395Z,20.04
2019-04-16T10:09:23.334Z,20.24
2019-04-16T10:11:52.535Z,20.11
2019-04-16T10:14:21.763Z,20.49
2019-04-16T10:16:51.243Z,20.62
2019-04-16T10:19:21.745Z,20.52
2019-04-16T10:21:54.219Z,20.61
2019-04-16T10:24:35.218Z,20.85
2019-04-16T10:27:05.031Z,20.98
2019-04-16T10:29:34.244Z,21.19
2019-04-16T10:32:03.648Z,21.32
2019-04-16T10:34:36.078Z,21.52
2019-04-16T10:37:03.969Z,21.35
2019-04-16T10:39:41.378Z,21.36
2019-04-16T10:42:37.797Z,21.29
2019-04-16T10:45:27.106Z,21.04
2019-04-16T10:48:14.192Z,21.17
2019-04-16T10:50:51.119Z,21.46
2019-04-16T10:53:26.748Z,21.58
2019-04-16T10:56:13.564Z,21.69
2019-04-16T10:58:57.066Z,21.74
2019-04-16T11:01:37.046Z,21.94
2019-04-16T11:04:20.552Z,21.70
2019-04-16T11:06:50.838Z,21.86
2019-04-16T11:09:20.285Z,21.88
2019-04-16T11:11:49.799Z,21.64
2019-04-16T11:14:19.058Z,21.60
2019-04-16T11:16:51.242Z,21.71
2019-04-16T11:19:20.634Z,21.76
2019-04-16T11:21:49.868Z,21.74
2019-04-16T11:24:20.551Z,21.67
2019-04-16T11:26:50.018Z,21.67
2019-04-16T11:29:19.461Z,21.76
2019-04-16T11:31:48.979Z,21.89
2019-04-16T11:34:18.218Z,21.95
2019-04-16T11:36:47.501Z,21.85
2019-04-16T11:39:16.908Z,21.73
2019-04-16T11:41:46.066Z,21.79
2019-04-16T11:44:17.189Z,21.68
2019-04-16T11:46:46.523Z,21.69
2019-04-16T11:49:15.744Z,21.73
2019-04-16T11:51:45.328Z,21.70
2019-04-16T11:54:14.759Z,21.79
2019-04-16T11:56:45.828Z,21.69
2019-04-16T11:59:15.309Z,21.68
2019-04-16T12:02:06.774Z,21.44
2019-04-16T12:04:43.511Z,21.29
2019-04-16T12:07:46.919Z,21.11
2019-04-16T12:10:33.363Z,20.78
2019-04-16T12:13:39.635Z,20.81
2019-04-16T12:16:43.148Z,21.20
2019-04-16T12:19:30.036Z,21.42
2019-04-16T12:22:11.132Z,21.38
2019-04-16T12:25:05.239Z,21.80
2019-04-16T12:28:06.537Z,22.25
2019-04-16T12:30:41.707Z,22.71
2019-04-16T12:33:36.315Z,22.83
2019-04-16T12:36:27.841Z,22.91
2019-04-16T12:39:19.987Z,22.90
2019-04-16T12:42:11.277Z,23.13
2019-04-16T12:44:59.595Z,23.37
2019-04-16T12:47:50.873Z,23.62
2019-04-16T12:50:51.474Z,23.52
2019-04-16T12:53:42.544Z,23.54
2019-04-16T12:56:41.098Z,23.49
2019-04-16T12:59:22.987Z,23.60
2019-04-16T13:02:23.063Z,23.85
2019-04-16T13:05:20.943Z,23.74
2019-04-16T13:07:54.190Z,23.92
2019-04-16T13:10:28.864Z,24.10
2019-04-16T13:13:35.324Z,24.50
2019-04-16T13:16:13.331Z,24.83
2019-04-16T13:19:19.591Z,24.50
2019-04-16T13:21:51.902Z,24.54
2019-04-16T13:24:34.273Z,24.55
2019-04-16T13:27:15.980Z,24.40
2019-04-16T13:29:45.654Z,24.80
2019-04-16T13:32:15.040Z,25.18
2019-04-16T13:34:44.290Z,25.45
2019-04-16T13:37:13.618Z,25.40
2019-04-16T13:39:59.155Z,25.23
2019-04-16T13:42:26.708Z,25.29
2019-04-16T13:45:18.189Z,25.30
2019-04-16T13:47:47.430Z,25.38
2019-04-16T13:50:39.821Z,25.49
2019-04-16T13:53:33.818Z,25.10
2019-04-16T13:56:24.947Z,25.43
2019-04-16T13:59:12.455Z,25.74
2019-04-16T14:01:49.961Z,25.74
2019-04-16T14:04:19.588Z,25.31
2019-04-16T14:06:48.938Z,25.12
2019-04-16T14:09:18.133Z,25.37
2019-04-16T14:11:50.983Z,25.48
2019-04-16T14:14:22.406Z,25.34
2019-04-16T14:16:49.767Z,25.36
2019-04-16T14:19:19.053Z,24.90
2019-04-16T14:21:48.289Z,24.68
2019-04-16T14:24:17.728Z,24.74
2019-04-16T14:26:46.984Z,24.94
2019-04-16T14:29:16.228Z,24.98
2019-04-16T14:31:46.055Z,25.18
2019-04-16T14:34:38.544Z,25.55
2019-04-16T14:37:07.951Z,25.40
2019-04-16T14:39:40.534Z,24.88
2019-04-16T14:42:10.005Z,24.76
2019-04-16T14:44:46.235Z,25.07
2019-04-16T14:47:16.033Z,25.34
2019-04-16T14:49:47.765Z,25.41
2019-04-16T14:52:16.182Z,25.47
2019-04-16T14:54:50.748Z,25.44
2019-04-16T14:57:20.010Z,25.46
2019-04-16T15:00:00.629Z,25.34
2019-04-16T15:02:37.414Z,25.05
2019-04-16T15:05:09.355Z,24.46
2019-04-16T15:07:56.569Z,24.22
2019-04-16T15:10:47.891Z,24.01
2019-04-16T15:13:42.148Z,23.66
2019-04-16T15:16:24.583Z,23.58
2019-04-16T15:19:11.694Z,23.56
2019-04-16T15:21:58.941Z,23.31
2019-04-16T15:24:43.026Z,22.88
2019-04-16T15:27:20.653Z,22.66
2019-04-16T15:29:58.190Z,22.80
2019-04-16T15:32:46.540Z,23.16
2019-04-16T15:35:20.942Z,23.19
2019-04-16T15:37:57.873Z,23.35
2019-04-16T15:40:40.339Z,23.03
2019-04-16T15:43:27.105Z,22.94
2019-04-16T15:46:26.128Z,23.07
2019-04-16T15:49:04.245Z,22.96
2019-04-16T15:51:58.471Z,22.53
2019-04-16T15:54:45.096Z,22.51
2019-04-16T15:57:36.429Z,22.55
2019-04-16T16:00:21.601Z,22.38
2019-04-16T16:03:12.912Z,21.92
2019-04-16T16:05:50.918Z,21.61
2019-04-16T16:08:30.516Z,21.78
2019-04-16T16:11:00.886Z,21.88
2019-04-16T16:13:30.124Z,21.87
2019-04-16T16:15:59.561Z,21.41
2019-04-16T16:18:29.115Z,21.11
2019-04-16T16:20:58.429Z,20.67
2019-04-16T16:23:32.823Z,20.41
2019-04-16T16:25:58.692Z,20.38
2019-04-16T16:28:27.914Z,20.49
2019-04-16T16:30:57.201Z,20.33
2019-04-16T16:33:26.619Z,20.18
2019-04-16T16:35:58.902Z,20.12
2019-04-16T16:38:26.793Z,19.88
2019-04-16T16:40:56.260Z,19.78
2019-04-16T16:43:25.496Z,19.72
2019-04-16T16:46:15.042Z,19.52
2019-04-16T16:48:44.218Z,19.34
2019-04-16T16:51:14.866Z,19.06
2019-04-16T16:53:54.535Z,18.82
2019-04-16T16:56:30.271Z,18.55
2019-04-16T16:59:15.842Z,18.21
2019-04-16T17:01:54.555Z,17.63
2019-04-16T17:04:30.927Z,16.80
2019-04-16T17:07:00.135Z,16.22
2019-04-16T17:09:31.400Z,15.90
2019-04-16T17:12:01.224Z,15.53
2019-04-16T17:14:30.567Z,15.03
2019-04-16T17:17:13.463Z,14.81
2019-04-16T17:19:32.203Z,14.58
2019-04-16T17:22:01.398Z,14.25
2019-04-16T17:24:30.604Z,13.93
2019-04-16T17:27:00.240Z,13.71
2019-04-16T17:29:29.428Z,13.45
2019-04-16T17:31:58.712Z,13.07
2019-04-16T17:34:28.256Z,12.83
2019-04-16T17:36:57.503Z,12.69
2019-04-16T17:39:47.039Z,12.53
2019-04-16T17:42:17.268Z,12.38
2019-04-16T17:45:04.217Z,12.20
2019-04-16T17:47:51.611Z,12.09
2019-04-16T17:50:39.284Z,11.97
2019-04-16T17:53:28.968Z,11.82
2019-04-16T17:56:16.669Z,11.69
2019-04-16T17:58:50.551Z,11.60
2019-04-16T18:01:40.365Z,11.42
2019-04-16T18:04:30.986Z,11.30
2019-04-16T18:07:25.712Z,11.19
2019-04-16T18:10:03.770Z,11.08
2019-04-16T18:12:55.131Z,10.94
2019-04-16T18:15:34.283Z,10.85
2019-04-16T18:18:17.186Z,10.77
2019-04-16T18:20:58.871Z,10.65
2019-04-16T18:23:35.851Z,10.52
2019-04-16T18:26:32.317Z,10.38
2019-04-16T18:29:09.656Z,10.20
2019-04-16T18:31:58.298Z,10.01
2019-04-16T18:34:43.533Z,9.94
2019-04-16T18:37:31.197Z,9.91
2019-04-16T18:40:13.702Z,9.84
2019-04-16T18:42:53.400Z,9.73
2019-04-16T18:45:31.911Z,9.67
2019-04-16T18:48:13.828Z,9.47
2019-04-16T18:50:41.896Z,9.33
2019-04-16T18:53:11.093Z,9.18
2019-04-16T18:55:40.299Z,9.06
2019-04-16T18:58:09.601Z,8.95
2019-04-16T19:00:47.458Z,8.90
2019-04-16T19:03:17.247Z,8.83
2019-04-16T19:05:46.450Z,8.79
2019-04-16T19:08:15.806Z,8.76
2019-04-16T19:10:45.413Z,8.71
2019-04-16T19:13:14.631Z,8.66
2019-04-16T19:15:43.844Z,8.62
2019-04-16T19:18:19.601Z,8.65
2019-04-16T19:20:44.304Z,8.72
2019-04-16T19:23:13.520Z,8.77
2019-04-16T19:25:43.023Z,8.80
2019-04-16T19:28:12.226Z,8.83
2019-04-16T19:30:41.413Z,8.83
2019-04-16T19:33:10.925Z,8.80
2019-04-16T19:35:40.106Z,8.78
2019-04-16T19:38:09.304Z,8.74
2019-04-16T19:40:38.938Z,8.70
2019-04-16T19:43:08.131Z,8.67
2019-04-16T19:45:37.420Z,8.62
2019-04-16T19:48:06.718Z,8.59
2019-04-16T19:50:37.177Z,8.56
2019-04-16T19:53:06.464Z,8.53
2019-04-16T19:55:37.838Z,8.50
2019-04-16T19:58:07.044Z,8.45
2019-04-16T20:00:36.422Z,8.40
2019-04-16T20:03:06.093Z,8.38
2019-04-16T20:05:35.310Z,8.30
2019-04-16T20:08:04.613Z,8.23
2019-04-16T20:10:36.631Z,8.20
2019-04-16T20:13:05.962Z,8.19
2019-04-16T20:15:35.156Z,8.13
2019-04-16T20:18:07.105Z,8.08
2019-04-16T20:20:35.646Z,8.01
2019-04-16T20:23:05.113Z,7.88
2019-04-16T20:25:34.362Z,7.77
2019-04-16T20:28:03.584Z,7.77
2019-04-16T20:30:32.895Z,7.72
2019-04-16T20:33:02.113Z,7.73
2019-04-16T20:35:31.299Z,7.75
2019-04-16T20:38:00.593Z,7.76
2019-04-16T20:40:29.840Z,7.73
2019-04-16T20:42:59.058Z,7.67
2019-04-16T20:45:28.559Z,7.55
2019-04-16T20:47:57.814Z,7.46
2019-04-16T20:50:27.008Z,7.44
2019-04-16T20:52:56.514Z,7.45
2019-04-16T20:55:26.120Z,7.43
2019-04-16T20:57:59.283Z,7.40
2019-04-16T21:00:31.639Z,7.34
2019-04-16T21:03:03.138Z,7.29
2019-04-16T21:05:35.819Z,7.22
2019-04-16T21:08:06.010Z,7.11
2019-04-16T21:10:36.392Z,6.99
2019-04-16T21:13:07.084Z,6.92
2019-04-16T21:15:39.694Z,6.91
2019-04-16T21:18:11.940Z,6.88
2019-04-16T21:20:40.036Z,6.77
2019-04-16T21:23:09.515Z,6.65
2019-04-16T21:25:38.837Z,6.64
2019-04-16T21:28:14.874Z,6.65
2019-04-16T21:30:45.246Z,6.65
2019-04-16T21:33:24.251Z,6.57
2019-04-16T21:35:55.576Z,6.44
2019-04-16T21:38:38.938Z,6.34
2019-04-16T21:41:08.515Z,6.37
2019-04-16T21:43:39.686Z,6.37
2019-04-16T21:46:08.761Z,6.41
2019-04-16T21:48:38.069Z,6.35
2019-04-16T21:51:07.714Z,6.33
2019-04-16T21:53:37.162Z,6.37
2019-04-16T21:56:08.504Z,6.33
2019-04-16T21:58:37.643Z,6.29
2019-04-16T22:01:24.452Z,6.19
2019-04-16T22:03:59.557Z,6.13
2019-04-16T22:06:28.996Z,6.11
2019-04-16T22:08:59.054Z,6.05
2019-04-16T22:11:29.126Z,5.97
2019-04-16T22:13:58.916Z,5.96
2019-04-16T22:16:29.937Z,5.95
2019-04-16T22:18:59.375Z,5.93
2019-04-16T22:21:28.711Z,5.85
2019-04-16T22:23:57.943Z,5.77
2019-04-16T22:26:27.157Z,5.78
2019-04-16T22:28:59.440Z,5.80
2019-04-16T22:31:28.890Z,5.79
2019-04-16T22:33:58.162Z,5.80
2019-04-16T22:36:27.510Z,5.79
2019-04-16T22:39:03.263Z,5.74
2019-04-16T22:41:37.878Z,5.70
2019-04-16T22:44:35.134Z,5.68
2019-04-16T22:47:09.657Z,5.67
2019-04-16T22:49:38.854Z,5.65
2019-04-16T22:52:08.051Z,5.55
2019-04-16T22:54:37.416Z,5.41
2019-04-16T22:57:08.750Z,5.36
2019-04-16T22:59:39.393Z,5.33
2019-04-16T23:02:19.126Z,5.33
2019-04-16T23:04:48.604Z,5.33
2019-04-16T23:07:17.882Z,5.32
2019-04-16T23:09:48.740Z,5.34
2019-04-16T23:12:18.322Z,5.34
2019-04-16T23:14:47.769Z,5.34
2019-04-16T23:17:17.925Z,5.33
2019-04-16T23:19:47.209Z,5.26
2019-04-16T23:22:16.404Z,5.22
2019-04-16T23:24:45.639Z,5.14
2019-04-16T23:27:15.148Z,5.08
2019-04-16T23:29:47.336Z,5.06
2019-04-16T23:32:15.356Z,5.03
2019-04-16T23:34:44.688Z,4.98
2019-04-16T23:37:13.900Z,4.89
2019-04-16T23:39:43.869Z,4.85
2019-04-16T23:42:13.340Z,4.87
2019-04-16T23:44:58.817Z,4.85
2019-04-16T23:47:45.142Z,4.88
2019-04-16T23:50:45.035Z,4.89
2019-04-16T23:53:18.195Z,4.88
2019-04-16T23:56:05.602Z,4.85
2019-04-16T23:58:43.736Z,4.80
